Main page
METAR-TAF:

METAR-TAF

Airports :

RNAS Yeovilton (HMS Heron)

Yeovilton, England

latitude: 51-00N, longitude: 002-38W, elevation: 23 m

Current weather observation

The report was made 30 minutes ago, at 20:50 UTC
Wind 6 kt from the South
Temperature 12°C
Humidity 88%
Pressure 1023 hPa
Visibility 10 km or more
Few clouds at a height of 2000 ft
Scattered clouds at a height of 18000 ft

METAR: EGDY 132050Z 19006KT 9999 FEW020 SCT180 12/10 Q1023 BLU NOSIG

Time: 21:20 (21:20 UTC)

Forecast

The report was made 5 hours and 13 minutes ago, at 16:07 UTC
Forecast valid from 13 at 18 UTC to 14 at 03 UTC
Wind 10 kt from the South/Southwest
Visibility 10 km or more
Few clouds at a height of 2000 ft

TAF: EGDY 131607Z 1318/1403 21010KT 9999 FEW020

Weather observations and forecasts of more than 4000 airports (METAR and TAF reports).

The available stations are represented by yellow and red dots on the map.

Hover mouse over dot to see the name of the station.

Then click to see weather observations and forecasts.

To change the map : click on the green buttons with a black cross to zoom in, on the green button with a dash to zoom out, or on the green arrows for adjacent maps.


METAR-TAF: